sensor_id;sensor_type;location;lat;lon;timestamp;P1;durP1;ratioP1;P2;durP2;ratioP2
9948;SDS011;5013;51.840;8.276;2022-09-09T00:00:29;2.20;;;1.10;;
9948;SDS011;5013;51.840;8.276;2022-09-09T00:03:05;2.50;;;1.20;;
9948;SDS011;5013;51.840;8.276;2022-09-09T00:08:14;3.80;;;1.43;;
9948;SDS011;5013;51.840;8.276;2022-09-09T00:10:45;1.87;;;0.93;;
9948;SDS011;5013;51.840;8.276;2022-09-09T00:16:04;3.97;;;1.47;;
9948;SDS011;5013;51.840;8.276;2022-09-09T00:21:23;5.20;;;1.57;;
9948;SDS011;5013;51.840;8.276;2022-09-09T00:23:57;2.10;;;1.73;;
9948;SDS011;5013;51.840;8.276;2022-09-09T00:31:35;6.27;;;1.50;;
9948;SDS011;5013;51.840;8.276;2022-09-09T00:34:09;5.70;;;1.70;;
9948;SDS011;5013;51.840;8.276;2022-09-09T00:36:37;1.40;;;1.30;;
9948;SDS011;5013;51.840;8.276;2022-09-09T00:39:04;1.93;;;1.10;;
9948;SDS011;5013;51.840;8.276;2022-09-09T00:41:39;6.07;;;1.83;;
9948;SDS011;5013;51.840;8.276;2022-09-09T00:44:33;3.70;;;1.73;;
9948;SDS011;5013;51.840;8.276;2022-09-09T00:55:49;1.37;;;1.27;;
9948;SDS011;5013;51.840;8.276;2022-09-09T00:58:24;4.17;;;1.73;;
9948;SDS011;5013;51.840;8.276;2022-09-09T01:00:51;3.10;;;1.70;;
9948;SDS011;5013;51.840;8.276;2022-09-09T01:03:39;4.87;;;2.03;;
9948;SDS011;5013;51.840;8.276;2022-09-09T01:06:37;4.07;;;1.47;;
9948;SDS011;5013;51.840;8.276;2022-09-09T01:14:43;2.57;;;1.40;;
9948;SDS011;5013;51.840;8.276;2022-09-09T01:20:04;3.23;;;1.63;;
9948;SDS011;5013;51.840;8.276;2022-09-09T01:27:54;5.00;;;1.60;;
9948;SDS011;5013;51.840;8.276;2022-09-09T01:30:23;4.27;;;1.60;;
9948;SDS011;5013;51.840;8.276;2022-09-09T01:32:52;2.80;;;1.83;;
9948;SDS011;5013;51.840;8.276;2022-09-09T01:35:28;3.30;;;1.63;;
9948;SDS011;5013;51.840;8.276;2022-09-09T01:38:02;3.20;;;1.50;;
9948;SDS011;5013;51.840;8.276;2022-09-09T01:40:28;7.10;;;1.43;;
9948;SDS011;5013;51.840;8.276;2022-09-09T01:42:54;3.70;;;1.43;;
9948;SDS011;5013;51.840;8.276;2022-09-09T01:45:20;2.23;;;1.40;;
9948;SDS011;5013;51.840;8.276;2022-09-09T01:47:47;6.60;;;1.50;;
9948;SDS011;5013;51.840;8.276;2022-09-09T01:50:14;2.67;;;1.50;;
9948;SDS011;5013;51.840;8.276;2022-09-09T01:52:41;3.27;;;1.60;;
9948;SDS011;5013;51.840;8.276;2022-09-09T01:55:08;3.20;;;1.50;;
9948;SDS011;5013;51.840;8.276;2022-09-09T02:00:28;2.63;;;1.50;;
9948;SDS011;5013;51.840;8.276;2022-09-09T02:03:13;4.83;;;1.47;;
9948;SDS011;5013;51.840;8.276;2022-09-09T02:08:53;4.20;;;1.40;;
9948;SDS011;5013;51.840;8.276;2022-09-09T02:11:22;4.43;;;1.80;;
9948;SDS011;5013;51.840;8.276;2022-09-09T02:13:51;4.40;;;1.40;;
9948;SDS011;5013;51.840;8.276;2022-09-09T02:16:26;2.27;;;1.50;;
9948;SDS011;5013;51.840;8.276;2022-09-09T02:19:01;3.67;;;1.50;;
9948;SDS011;5013;51.840;8.276;2022-09-09T02:21:50;2.73;;;1.30;;
9948;SDS011;5013;51.840;8.276;2022-09-09T02:24:19;3.33;;;1.47;;
9948;SDS011;5013;51.840;8.276;2022-09-09T02:26:46;2.97;;;1.77;;
9948;SDS011;5013;51.840;8.276;2022-09-09T02:29:16;2.77;;;1.50;;
9948;SDS011;5013;51.840;8.276;2022-09-09T02:31:45;2.57;;;1.30;;
9948;SDS011;5013;51.840;8.276;2022-09-09T02:34:12;3.23;;;1.40;;
9948;SDS011;5013;51.840;8.276;2022-09-09T02:36:41;1.63;;;1.40;;
9948;SDS011;5013;51.840;8.276;2022-09-09T02:39:09;2.50;;;1.50;;
9948;SDS011;5013;51.840;8.276;2022-09-09T02:41:37;3.70;;;1.70;;
9948;SDS011;5013;51.840;8.276;2022-09-09T02:44:05;3.10;;;1.60;;
9948;SDS011;5013;51.840;8.276;2022-09-09T02:49:10;3.80;;;1.50;;
9948;SDS011;5013;51.840;8.276;2022-09-09T02:54:17;1.70;;;1.40;;
9948;SDS011;5013;51.840;8.276;2022-09-09T02:56:55;3.43;;;1.70;;
9948;SDS011;5013;51.840;8.276;2022-09-09T02:59:31;2.20;;;1.40;;
9948;SDS011;5013;51.840;8.276;2022-09-09T03:01:57;2.53;;;1.60;;
9948;SDS011;5013;51.840;8.276;2022-09-09T03:04:22;3.20;;;2.00;;
9948;SDS011;5013;51.840;8.276;2022-09-09T03:06:49;2.37;;;1.53;;
9948;SDS011;5013;51.840;8.276;2022-09-09T03:09:15;3.23;;;1.67;;
9948;SDS011;5013;51.840;8.276;2022-09-09T03:11:41;3.50;;;1.87;;
9948;SDS011;5013;51.840;8.276;2022-09-09T03:14:06;5.93;;;1.60;;
9948;SDS011;5013;51.840;8.276;2022-09-09T03:16:33;6.80;;;1.87;;
9948;SDS011;5013;51.840;8.276;2022-09-09T03:18:59;4.17;;;1.80;;
9948;SDS011;5013;51.840;8.276;2022-09-09T03:21:25;2.73;;;1.60;;
9948;SDS011;5013;51.840;8.276;2022-09-09T03:23:51;2.80;;;1.80;;
9948;SDS011;5013;51.840;8.276;2022-09-09T03:26:16;3.67;;;2.07;;
9948;SDS011;5013;51.840;8.276;2022-09-09T03:28:42;1.97;;;1.40;;
9948;SDS011;5013;51.840;8.276;2022-09-09T03:31:08;4.77;;;1.50;;
9948;SDS011;5013;51.840;8.276;2022-09-09T03:33:35;4.47;;;1.80;;
9948;SDS011;5013;51.840;8.276;2022-09-09T03:36:02;5.07;;;1.70;;
9948;SDS011;5013;51.840;8.276;2022-09-09T03:38:28;3.40;;;1.83;;
9948;SDS011;5013;51.840;8.276;2022-09-09T03:40:54;4.37;;;1.73;;
9948;SDS011;5013;51.840;8.276;2022-09-09T03:43:22;1.80;;;1.40;;
9948;SDS011;5013;51.840;8.276;2022-09-09T03:45:49;2.60;;;1.60;;
9948;SDS011;5013;51.840;8.276;2022-09-09T03:48:16;2.60;;;1.40;;
9948;SDS011;5013;51.840;8.276;2022-09-09T03:50:45;3.90;;;1.70;;
9948;SDS011;5013;51.840;8.276;2022-09-09T03:53:12;1.47;;;1.33;;
9948;SDS011;5013;51.840;8.276;2022-09-09T03:55:38;4.03;;;1.60;;
9948;SDS011;5013;51.840;8.276;2022-09-09T03:58:04;3.03;;;1.47;;
9948;SDS011;5013;51.840;8.276;2022-09-09T04:00:29;2.53;;;1.60;;
9948;SDS011;5013;51.840;8.276;2022-09-09T04:02:55;3.67;;;1.60;;
9948;SDS011;5013;51.840;8.276;2022-09-09T04:05:21;2.73;;;1.67;;
9948;SDS011;5013;51.840;8.276;2022-09-09T04:07:47;4.90;;;1.90;;
9948;SDS011;5013;51.840;8.276;2022-09-09T04:10:13;1.80;;;1.63;;
9948;SDS011;5013;51.840;8.276;2022-09-09T04:12:40;3.20;;;1.53;;
9948;SDS011;5013;51.840;8.276;2022-09-09T04:15:06;2.70;;;1.90;;
9948;SDS011;5013;51.840;8.276;2022-09-09T04:17:32;2.23;;;1.60;;
9948;SDS011;5013;51.840;8.276;2022-09-09T04:19:58;4.50;;;1.77;;
9948;SDS011;5013;51.840;8.276;2022-09-09T04:22:23;4.33;;;1.80;;
9948;SDS011;5013;51.840;8.276;2022-09-09T04:24:49;3.50;;;1.67;;
9948;SDS011;5013;51.840;8.276;2022-09-09T04:27:15;4.57;;;2.17;;
9948;SDS011;5013;51.840;8.276;2022-09-09T04:29:40;2.77;;;1.80;;
9948;SDS011;5013;51.840;8.276;2022-09-09T04:32:06;3.53;;;1.80;;
9948;SDS011;5013;51.840;8.276;2022-09-09T04:34:31;2.27;;;1.40;;
9948;SDS011;5013;51.840;8.276;2022-09-09T04:36:57;4.17;;;1.80;;
9948;SDS011;5013;51.840;8.276;2022-09-09T04:39:23;3.03;;;1.90;;
9948;SDS011;5013;51.840;8.276;2022-09-09T04:41:49;4.77;;;1.70;;
9948;SDS011;5013;51.840;8.276;2022-09-09T04:44:15;5.47;;;1.83;;
9948;SDS011;5013;51.840;8.276;2022-09-09T04:46:40;2.80;;;2.07;;
9948;SDS011;5013;51.840;8.276;2022-09-09T04:49:06;2.63;;;1.80;;
9948;SDS011;5013;51.840;8.276;2022-09-09T04:51:32;2.70;;;1.60;;
9948;SDS011;5013;51.840;8.276;2022-09-09T04:53:58;3.97;;;1.70;;
9948;SDS011;5013;51.840;8.276;2022-09-09T04:56:23;2.63;;;1.80;;
9948;SDS011;5013;51.840;8.276;2022-09-09T04:58:52;6.97;;;2.10;;
9948;SDS011;5013;51.840;8.276;2022-09-09T05:01:18;3.97;;;1.70;;
9948;SDS011;5013;51.840;8.276;2022-09-09T05:03:46;2.37;;;1.47;;
9948;SDS011;5013;51.840;8.276;2022-09-09T05:06:16;4.50;;;1.63;;
9948;SDS011;5013;51.840;8.276;2022-09-09T05:08:43;6.07;;;1.47;;
9948;SDS011;5013;51.840;8.276;2022-09-09T05:13:43;3.20;;;1.90;;
9948;SDS011;5013;51.840;8.276;2022-09-09T05:16:09;3.63;;;1.80;;
9948;SDS011;5013;51.840;8.276;2022-09-09T05:18:36;2.73;;;1.80;;
9948;SDS011;5013;51.840;8.276;2022-09-09T05:21:03;2.40;;;1.73;;
9948;SDS011;5013;51.840;8.276;2022-09-09T05:23:28;3.57;;;1.70;;
9948;SDS011;5013;51.840;8.276;2022-09-09T05:25:57;4.60;;;1.77;;
9948;SDS011;5013;51.840;8.276;2022-09-09T05:28:26;2.60;;;1.80;;
9948;SDS011;5013;51.840;8.276;2022-09-09T05:30:59;6.07;;;2.13;;
9948;SDS011;5013;51.840;8.276;2022-09-09T05:33:29;6.33;;;2.27;;
9948;SDS011;5013;51.840;8.276;2022-09-09T05:36:03;6.60;;;1.83;;
9948;SDS011;5013;51.840;8.276;2022-09-09T05:38:31;3.30;;;1.80;;
9948;SDS011;5013;51.840;8.276;2022-09-09T05:40:57;4.90;;;2.10;;
9948;SDS011;5013;51.840;8.276;2022-09-09T05:43:23;4.07;;;1.67;;
9948;SDS011;5013;51.840;8.276;2022-09-09T05:48:48;3.10;;;1.93;;
9948;SDS011;5013;51.840;8.276;2022-09-09T05:51:23;2.33;;;1.77;;
9948;SDS011;5013;51.840;8.276;2022-09-09T05:53:51;5.17;;;1.67;;
9948;SDS011;5013;51.840;8.276;2022-09-09T05:56:18;3.87;;;1.80;;
9948;SDS011;5013;51.840;8.276;2022-09-09T05:58:46;6.13;;;1.77;;
9948;SDS011;5013;51.840;8.276;2022-09-09T06:01:13;4.87;;;1.57;;
9948;SDS011;5013;51.840;8.276;2022-09-09T06:03:40;2.67;;;1.70;;
9948;SDS011;5013;51.840;8.276;2022-09-09T06:06:08;2.40;;;1.53;;
9948;SDS011;5013;51.840;8.276;2022-09-09T06:08:36;3.87;;;1.60;;
9948;SDS011;5013;51.840;8.276;2022-09-09T06:11:07;5.97;;;1.73;;
9948;SDS011;5013;51.840;8.276;2022-09-09T06:13:40;3.00;;;1.70;;
9948;SDS011;5013;51.840;8.276;2022-09-09T06:16:10;3.30;;;1.67;;
9948;SDS011;5013;51.840;8.276;2022-09-09T06:18:41;5.40;;;1.90;;
9948;SDS011;5013;51.840;8.276;2022-09-09T06:21:13;12.17;;;2.17;;
9948;SDS011;5013;51.840;8.276;2022-09-09T06:23:41;5.87;;;2.27;;
9948;SDS011;5013;51.840;8.276;2022-09-09T06:26:11;5.30;;;2.10;;
9948;SDS011;5013;51.840;8.276;2022-09-09T06:28:38;7.37;;;2.17;;
9948;SDS011;5013;51.840;8.276;2022-09-09T06:31:05;6.40;;;2.00;;
9948;SDS011;5013;51.840;8.276;2022-09-09T06:33:34;6.97;;;2.30;;
9948;SDS011;5013;51.840;8.276;2022-09-09T06:36:01;2.87;;;1.60;;
9948;SDS011;5013;51.840;8.276;2022-09-09T06:38:28;4.77;;;1.83;;
9948;SDS011;5013;51.840;8.276;2022-09-09T06:40:55;3.10;;;1.70;;
9948;SDS011;5013;51.840;8.276;2022-09-09T06:43:23;4.10;;;1.93;;
9948;SDS011;5013;51.840;8.276;2022-09-09T06:45:59;4.20;;;1.57;;
9948;SDS011;5013;51.840;8.276;2022-09-09T06:48:27;4.90;;;1.90;;
9948;SDS011;5013;51.840;8.276;2022-09-09T06:51:06;4.83;;;1.83;;
9948;SDS011;5013;51.840;8.276;2022-09-09T06:53:32;3.30;;;1.70;;
9948;SDS011;5013;51.840;8.276;2022-09-09T06:56:00;6.10;;;1.80;;
9948;SDS011;5013;51.840;8.276;2022-09-09T06:58:34;4.83;;;2.20;;
9948;SDS011;5013;51.840;8.276;2022-09-09T07:01:07;4.03;;;2.03;;
9948;SDS011;5013;51.840;8.276;2022-09-09T07:03:33;6.97;;;1.83;;
9948;SDS011;5013;51.840;8.276;2022-09-09T07:05:59;3.50;;;1.70;;
9948;SDS011;5013;51.840;8.276;2022-09-09T07:08:24;5.23;;;1.90;;
9948;SDS011;5013;51.840;8.276;2022-09-09T07:10:50;5.80;;;1.80;;
9948;SDS011;5013;51.840;8.276;2022-09-09T07:13:26;4.23;;;2.00;;
9948;SDS011;5013;51.840;8.276;2022-09-09T07:15:52;5.00;;;2.13;;
9948;SDS011;5013;51.840;8.276;2022-09-09T07:18:21;5.63;;;2.13;;
9948;SDS011;5013;51.840;8.276;2022-09-09T07:20:55;7.90;;;2.27;;
9948;SDS011;5013;51.840;8.276;2022-09-09T07:23:21;7.53;;;2.03;;
9948;SDS011;5013;51.840;8.276;2022-09-09T07:25:47;4.93;;;1.50;;
9948;SDS011;5013;51.840;8.276;2022-09-09T07:28:13;6.53;;;1.77;;
9948;SDS011;5013;51.840;8.276;2022-09-09T07:30:39;3.67;;;1.70;;
9948;SDS011;5013;51.840;8.276;2022-09-09T07:33:05;6.80;;;1.70;;
9948;SDS011;5013;51.840;8.276;2022-09-09T07:35:31;3.67;;;1.60;;
9948;SDS011;5013;51.840;8.276;2022-09-09T07:37:57;3.03;;;1.50;;
9948;SDS011;5013;51.840;8.276;2022-09-09T07:40:23;6.30;;;2.10;;
9948;SDS011;5013;51.840;8.276;2022-09-09T07:42:49;12.93;;;2.00;;
9948;SDS011;5013;51.840;8.276;2022-09-09T07:45:15;3.63;;;1.37;;
9948;SDS011;5013;51.840;8.276;2022-09-09T07:47:40;6.60;;;1.50;;
9948;SDS011;5013;51.840;8.276;2022-09-09T07:50:07;6.73;;;1.57;;
9948;SDS011;5013;51.840;8.276;2022-09-09T07:52:35;8.97;;;1.63;;
9948;SDS011;5013;51.840;8.276;2022-09-09T07:55:00;7.03;;;1.67;;
9948;SDS011;5013;51.840;8.276;2022-09-09T07:57:29;3.63;;;1.63;;
9948;SDS011;5013;51.840;8.276;2022-09-09T07:59:58;4.13;;;1.70;;
9948;SDS011;5013;51.840;8.276;2022-09-09T08:02:24;9.53;;;1.87;;
9948;SDS011;5013;51.840;8.276;2022-09-09T08:04:50;6.40;;;1.70;;
9948;SDS011;5013;51.840;8.276;2022-09-09T08:07:17;4.83;;;1.60;;
9948;SDS011;5013;51.840;8.276;2022-09-09T08:09:42;2.87;;;1.70;;
9948;SDS011;5013;51.840;8.276;2022-09-09T08:12:08;5.20;;;1.50;;
9948;SDS011;5013;51.840;8.276;2022-09-09T08:14:35;2.87;;;1.40;;
9948;SDS011;5013;51.840;8.276;2022-09-09T08:17:01;3.43;;;1.40;;
9948;SDS011;5013;51.840;8.276;2022-09-09T08:19:27;2.97;;;1.73;;
9948;SDS011;5013;51.840;8.276;2022-09-09T08:21:54;4.17;;;1.97;;
9948;SDS011;5013;51.840;8.276;2022-09-09T08:24:20;3.70;;;1.83;;
9948;SDS011;5013;51.840;8.276;2022-09-09T08:26:46;5.20;;;1.80;;
9948;SDS011;5013;51.840;8.276;2022-09-09T08:29:16;10.73;;;2.60;;
9948;SDS011;5013;51.840;8.276;2022-09-09T08:31:43;3.60;;;2.40;;
9948;SDS011;5013;51.840;8.276;2022-09-09T08:34:14;9.00;;;2.43;;
9948;SDS011;5013;51.840;8.276;2022-09-09T08:36:42;2.97;;;1.93;;
9948;SDS011;5013;51.840;8.276;2022-09-09T08:39:10;5.43;;;2.10;;
9948;SDS011;5013;51.840;8.276;2022-09-09T08:45:12;3.23;;;1.50;;
9948;SDS011;5013;51.840;8.276;2022-09-09T08:49:49;2.47;;;1.27;;
9948;SDS011;5013;51.840;8.276;2022-09-09T08:52:31;5.93;;;1.80;;
9948;SDS011;5013;51.840;8.276;2022-09-09T08:55:24;2.50;;;1.53;;
9948;SDS011;5013;51.840;8.276;2022-09-09T08:57:55;2.00;;;1.43;;
9948;SDS011;5013;51.840;8.276;2022-09-09T09:00:22;2.67;;;1.53;;
9948;SDS011;5013;51.840;8.276;2022-09-09T09:03:32;2.57;;;1.63;;
9948;SDS011;5013;51.840;8.276;2022-09-09T09:06:06;3.70;;;1.40;;
9948;SDS011;5013;51.840;8.276;2022-09-09T09:09:08;2.90;;;1.00;;
9948;SDS011;5013;51.840;8.276;2022-09-09T09:12:16;9.47;;;1.80;;
9948;SDS011;5013;51.840;8.276;2022-09-09T09:14:42;2.23;;;1.10;;
9948;SDS011;5013;51.840;8.276;2022-09-09T09:17:11;5.20;;;1.60;;
9948;SDS011;5013;51.840;8.276;2022-09-09T09:19:40;2.47;;;1.37;;
9948;SDS011;5013;51.840;8.276;2022-09-09T09:22:14;4.10;;;1.67;;
9948;SDS011;5013;51.840;8.276;2022-09-09T09:27:18;2.57;;;1.50;;
9948;SDS011;5013;51.840;8.276;2022-09-09T09:30:00;5.97;;;1.83;;
9948;SDS011;5013;51.840;8.276;2022-09-09T09:32:43;3.60;;;1.63;;
9948;SDS011;5013;51.840;8.276;2022-09-09T09:35:25;6.90;;;2.10;;
9948;SDS011;5013;51.840;8.276;2022-09-09T09:37:51;6.77;;;1.80;;
9948;SDS011;5013;51.840;8.276;2022-09-09T09:40:18;4.07;;;1.37;;
9948;SDS011;5013;51.840;8.276;2022-09-09T09:42:59;5.83;;;1.70;;
9948;SDS011;5013;51.840;8.276;2022-09-09T09:45:32;5.87;;;1.60;;
9948;SDS011;5013;51.840;8.276;2022-09-09T09:47:58;4.00;;;1.60;;
9948;SDS011;5013;51.840;8.276;2022-09-09T09:50:29;5.60;;;1.77;;
9948;SDS011;5013;51.840;8.276;2022-09-09T09:52:59;5.20;;;1.87;;
9948;SDS011;5013;51.840;8.276;2022-09-09T09:55:28;4.13;;;1.50;;
9948;SDS011;5013;51.840;8.276;2022-09-09T09:58:06;1.43;;;1.27;;
9948;SDS011;5013;51.840;8.276;2022-09-09T10:00:47;9.27;;;2.27;;
9948;SDS011;5013;51.840;8.276;2022-09-09T10:03:30;3.97;;;1.60;;
9948;SDS011;5013;51.840;8.276;2022-09-09T10:06:02;6.10;;;2.33;;
9948;SDS011;5013;51.840;8.276;2022-09-09T10:08:28;6.33;;;1.80;;
9948;SDS011;5013;51.840;8.276;2022-09-09T10:11:00;5.13;;;1.90;;
9948;SDS011;5013;51.840;8.276;2022-09-09T10:13:42;5.57;;;1.60;;
9948;SDS011;5013;51.840;8.276;2022-09-09T10:19:05;4.23;;;1.87;;
9948;SDS011;5013;51.840;8.276;2022-09-09T10:24:36;5.67;;;1.67;;
9948;SDS011;5013;51.840;8.276;2022-09-09T10:27:17;3.50;;;1.77;;
9948;SDS011;5013;51.840;8.276;2022-09-09T10:30:18;2.83;;;1.70;;
9948;SDS011;5013;51.840;8.276;2022-09-09T10:32:49;3.37;;;1.80;;
9948;SDS011;5013;51.840;8.276;2022-09-09T10:35:36;3.77;;;1.80;;
9948;SDS011;5013;51.840;8.276;2022-09-09T10:38:41;3.47;;;1.77;;
9948;SDS011;5013;51.840;8.276;2022-09-09T10:41:19;4.73;;;1.63;;
9948;SDS011;5013;51.840;8.276;2022-09-09T10:46:57;4.03;;;1.87;;
9948;SDS011;5013;51.840;8.276;2022-09-09T10:52:23;3.77;;;1.50;;
9948;SDS011;5013;51.840;8.276;2022-09-09T10:57:46;3.07;;;1.30;;
9948;SDS011;5013;51.840;8.276;2022-09-09T11:00:21;5.50;;;1.90;;
9948;SDS011;5013;51.840;8.276;2022-09-09T11:03:12;3.37;;;1.60;;
9948;SDS011;5013;51.840;8.276;2022-09-09T11:06:10;7.47;;;1.97;;
9948;SDS011;5013;51.840;8.276;2022-09-09T11:08:39;5.43;;;1.83;;
9948;SDS011;5013;51.840;8.276;2022-09-09T11:11:22;6.37;;;2.20;;
9948;SDS011;5013;51.840;8.276;2022-09-09T11:16:39;5.33;;;1.60;;
9948;SDS011;5013;51.840;8.276;2022-09-09T11:19:36;4.73;;;1.70;;
9948;SDS011;5013;51.840;8.276;2022-09-09T11:24:44;1.73;;;1.63;;
9948;SDS011;5013;51.840;8.276;2022-09-09T11:30:38;3.40;;;1.70;;
9948;SDS011;5013;51.840;8.276;2022-09-09T11:41:12;6.10;;;1.47;;
9948;SDS011;5013;51.840;8.276;2022-09-09T11:46:09;2.60;;;1.37;;
9948;SDS011;5013;51.840;8.276;2022-09-09T11:51:10;6.22;;;1.58;;
9948;SDS011;5013;51.840;8.276;2022-09-09T11:53:48;2.90;;;1.60;;
9948;SDS011;5013;51.840;8.276;2022-09-09T11:56:27;1.85;;;1.23;;
9948;SDS011;5013;51.840;8.276;2022-09-09T11:58:57;4.88;;;1.88;;
9948;SDS011;5013;51.840;8.276;2022-09-09T12:04:09;2.55;;;1.40;;
9948;SDS011;5013;51.840;8.276;2022-09-09T12:07:19;5.43;;;1.63;;
9948;SDS011;5013;51.840;8.276;2022-09-09T12:09:51;4.93;;;1.77;;
9948;SDS011;5013;51.840;8.276;2022-09-09T12:14:55;5.53;;;1.75;;
9948;SDS011;5013;51.840;8.276;2022-09-09T12:17:22;5.93;;;1.60;;
9948;SDS011;5013;51.840;8.276;2022-09-09T12:20:00;2.83;;;1.50;;
9948;SDS011;5013;51.840;8.276;2022-09-09T12:28:27;5.10;;;1.58;;
9948;SDS011;5013;51.840;8.276;2022-09-09T12:31:25;5.50;;;1.70;;
9948;SDS011;5013;51.840;8.276;2022-09-09T12:35:09;3.08;;;1.70;;
9948;SDS011;5013;51.840;8.276;2022-09-09T12:37:18;5.22;;;1.48;;
9948;SDS011;5013;51.840;8.276;2022-09-09T12:40:17;3.78;;;1.30;;
9948;SDS011;5013;51.840;8.276;2022-09-09T12:42:45;3.17;;;1.15;;
9948;SDS011;5013;51.840;8.276;2022-09-09T12:45:15;2.75;;;1.15;;
9948;SDS011;5013;51.840;8.276;2022-09-09T12:50:26;3.77;;;1.50;;
9948;SDS011;5013;51.840;8.276;2022-09-09T12:52:55;3.47;;;1.60;;
9948;SDS011;5013;51.840;8.276;2022-09-09T12:55:31;4.90;;;1.40;;
9948;SDS011;5013;51.840;8.276;2022-09-09T12:58:03;2.60;;;1.50;;
9948;SDS011;5013;51.840;8.276;2022-09-09T13:00:30;3.73;;;1.37;;
9948;SDS011;5013;51.840;8.276;2022-09-09T13:02:58;3.07;;;1.30;;
9948;SDS011;5013;51.840;8.276;2022-09-09T13:05:39;3.83;;;1.50;;
9948;SDS011;5013;51.840;8.276;2022-09-09T13:08:06;1.93;;;1.27;;
9948;SDS011;5013;51.840;8.276;2022-09-09T13:10:36;2.07;;;1.10;;
9948;SDS011;5013;51.840;8.276;2022-09-09T13:16:22;2.30;;;0.83;;
9948;SDS011;5013;51.840;8.276;2022-09-09T13:18:51;1.43;;;0.90;;
9948;SDS011;5013;51.840;8.276;2022-09-09T13:21:18;4.57;;;1.33;;
9948;SDS011;5013;51.840;8.276;2022-09-09T13:23:48;3.17;;;1.03;;
9948;SDS011;5013;51.840;8.276;2022-09-09T13:26:22;1.70;;;1.20;;
9948;SDS011;5013;51.840;8.276;2022-09-09T13:28:51;4.97;;;1.30;;
9948;SDS011;5013;51.840;8.276;2022-09-09T13:31:24;2.47;;;1.23;;
9948;SDS011;5013;51.840;8.276;2022-09-09T13:33:54;2.72;;;1.08;;
9948;SDS011;5013;51.840;8.276;2022-09-09T13:36:30;2.63;;;1.20;;
9948;SDS011;5013;51.840;8.276;2022-09-09T13:38:58;3.25;;;1.10;;
9948;SDS011;5013;51.840;8.276;2022-09-09T13:41:32;4.00;;;1.45;;
9948;SDS011;5013;51.840;8.276;2022-09-09T13:44:00;2.07;;;1.03;;
9948;SDS011;5013;51.840;8.276;2022-09-09T13:46:40;6.65;;;1.20;;
9948;SDS011;5013;51.840;8.276;2022-09-09T13:51:41;4.00;;;1.43;;
9948;SDS011;5013;51.840;8.276;2022-09-09T13:54:11;8.37;;;1.47;;
9948;SDS011;5013;51.840;8.276;2022-09-09T13:56:39;2.23;;;1.37;;
9948;SDS011;5013;51.840;8.276;2022-09-09T13:59:06;2.27;;;1.00;;
9948;SDS011;5013;51.840;8.276;2022-09-09T14:01:39;3.17;;;1.10;;
9948;SDS011;5013;51.840;8.276;2022-09-09T14:04:06;1.90;;;1.33;;
9948;SDS011;5013;51.840;8.276;2022-09-09T14:06:32;2.37;;;1.03;;
9948;SDS011;5013;51.840;8.276;2022-09-09T14:09:02;2.27;;;1.23;;
9948;SDS011;5013;51.840;8.276;2022-09-09T14:11:27;5.37;;;0.97;;
9948;SDS011;5013;51.840;8.276;2022-09-09T14:13:53;3.00;;;1.10;;
9948;SDS011;5013;51.840;8.276;2022-09-09T14:16:19;3.73;;;1.10;;
9948;SDS011;5013;51.840;8.276;2022-09-09T14:18:46;3.23;;;1.10;;
9948;SDS011;5013;51.840;8.276;2022-09-09T14:21:12;2.20;;;1.10;;
9948;SDS011;5013;51.840;8.276;2022-09-09T14:23:38;2.00;;;1.20;;
9948;SDS011;5013;51.840;8.276;2022-09-09T14:26:04;3.47;;;1.40;;
9948;SDS011;5013;51.840;8.276;2022-09-09T14:28:30;1.33;;;1.20;;
9948;SDS011;5013;51.840;8.276;2022-09-09T14:30:58;2.93;;;1.30;;
9948;SDS011;5013;51.840;8.276;2022-09-09T14:33:25;3.77;;;1.20;;
9948;SDS011;5013;51.840;8.276;2022-09-09T14:35:57;4.00;;;1.30;;
9948;SDS011;5013;51.840;8.276;2022-09-09T14:38:30;2.17;;;1.30;;
9948;SDS011;5013;51.840;8.276;2022-09-09T14:41:03;2.40;;;1.20;;
9948;SDS011;5013;51.840;8.276;2022-09-09T14:43:29;2.63;;;1.37;;
9948;SDS011;5013;51.840;8.276;2022-09-09T14:45:57;3.33;;;1.50;;
9948;SDS011;5013;51.840;8.276;2022-09-09T14:48:30;3.27;;;1.10;;
9948;SDS011;5013;51.840;8.276;2022-09-09T14:50:56;5.90;;;1.37;;
9948;SDS011;5013;51.840;8.276;2022-09-09T14:53:21;3.40;;;1.10;;
9948;SDS011;5013;51.840;8.276;2022-09-09T14:55:47;1.23;;;1.03;;
9948;SDS011;5013;51.840;8.276;2022-09-09T14:58:13;4.10;;;1.50;;
9948;SDS011;5013;51.840;8.276;2022-09-09T15:00:38;3.50;;;1.30;;
9948;SDS011;5013;51.840;8.276;2022-09-09T15:03:04;3.80;;;1.30;;
9948;SDS011;5013;51.840;8.276;2022-09-09T15:05:30;4.47;;;1.37;;
9948;SDS011;5013;51.840;8.276;2022-09-09T15:07:57;3.10;;;1.27;;
9948;SDS011;5013;51.840;8.276;2022-09-09T15:10:23;2.63;;;1.10;;
9948;SDS011;5013;51.840;8.276;2022-09-09T15:12:49;2.40;;;1.00;;
9948;SDS011;5013;51.840;8.276;2022-09-09T15:15:15;1.97;;;1.07;;
9948;SDS011;5013;51.840;8.276;2022-09-09T15:17:40;2.90;;;1.13;;
9948;SDS011;5013;51.840;8.276;2022-09-09T15:20:06;2.90;;;1.10;;
9948;SDS011;5013;51.840;8.276;2022-09-09T15:22:32;5.70;;;1.20;;
9948;SDS011;5013;51.840;8.276;2022-09-09T15:24:58;2.73;;;1.23;;
9948;SDS011;5013;51.840;8.276;2022-09-09T15:27:24;2.73;;;1.27;;
9948;SDS011;5013;51.840;8.276;2022-09-09T15:29:50;2.23;;;1.20;;
9948;SDS011;5013;51.840;8.276;2022-09-09T15:32:16;3.20;;;1.20;;
9948;SDS011;5013;51.840;8.276;2022-09-09T15:34:42;2.73;;;1.60;;
9948;SDS011;5013;51.840;8.276;2022-09-09T15:37:09;4.97;;;1.40;;
9948;SDS011;5013;51.840;8.276;2022-09-09T15:39:38;3.13;;;1.30;;
9948;SDS011;5013;51.840;8.276;2022-09-09T15:42:05;7.30;;;1.57;;
9948;SDS011;5013;51.840;8.276;2022-09-09T15:44:41;2.23;;;1.23;;
9948;SDS011;5013;51.840;8.276;2022-09-09T15:47:07;2.87;;;1.43;;
9948;SDS011;5013;51.840;8.276;2022-09-09T15:49:37;2.27;;;1.37;;
9948;SDS011;5013;51.840;8.276;2022-09-09T15:52:03;1.43;;;1.27;;
9948;SDS011;5013;51.840;8.276;2022-09-09T15:54:33;3.43;;;1.43;;
9948;SDS011;5013;51.840;8.276;2022-09-09T15:57:02;2.13;;;1.30;;
9948;SDS011;5013;51.840;8.276;2022-09-09T15:59:29;2.57;;;1.33;;
9948;SDS011;5013;51.840;8.276;2022-09-09T16:01:56;3.13;;;1.30;;
9948;SDS011;5013;51.840;8.276;2022-09-09T16:04:25;6.03;;;1.30;;
9948;SDS011;5013;51.840;8.276;2022-09-09T16:06:51;4.43;;;1.50;;
9948;SDS011;5013;51.840;8.276;2022-09-09T16:09:19;4.33;;;1.70;;
9948;SDS011;5013;51.840;8.276;2022-09-09T16:11:45;8.37;;;1.60;;
9948;SDS011;5013;51.840;8.276;2022-09-09T16:14:14;2.80;;;1.20;;
9948;SDS011;5013;51.840;8.276;2022-09-09T16:16:40;7.90;;;1.50;;
9948;SDS011;5013;51.840;8.276;2022-09-09T16:19:07;4.53;;;1.63;;
9948;SDS011;5013;51.840;8.276;2022-09-09T16:21:41;3.07;;;1.30;;
9948;SDS011;5013;51.840;8.276;2022-09-09T16:24:09;4.30;;;1.47;;
9948;SDS011;5013;51.840;8.276;2022-09-09T16:26:37;3.27;;;1.10;;
9948;SDS011;5013;51.840;8.276;2022-09-09T16:29:05;3.57;;;1.50;;
9948;SDS011;5013;51.840;8.276;2022-09-09T16:31:31;3.07;;;1.50;;
9948;SDS011;5013;51.840;8.276;2022-09-09T16:33:58;3.80;;;1.13;;
9948;SDS011;5013;51.840;8.276;2022-09-09T16:36:24;1.27;;;0.87;;
9948;SDS011;5013;51.840;8.276;2022-09-09T16:38:56;4.23;;;1.00;;
9948;SDS011;5013;51.840;8.276;2022-09-09T16:41:24;2.10;;;1.10;;
9948;SDS011;5013;51.840;8.276;2022-09-09T16:44:00;1.13;;;0.93;;
9948;SDS011;5013;51.840;8.276;2022-09-09T16:46:34;1.83;;;1.20;;
9948;SDS011;5013;51.840;8.276;2022-09-09T16:49:03;3.93;;;1.40;;
9948;SDS011;5013;51.840;8.276;2022-09-09T16:51:32;4.13;;;1.33;;
9948;SDS011;5013;51.840;8.276;2022-09-09T16:54:00;2.53;;;1.17;;
9948;SDS011;5013;51.840;8.276;2022-09-09T16:56:28;3.50;;;1.50;;
9948;SDS011;5013;51.840;8.276;2022-09-09T16:58:57;2.53;;;1.20;;
9948;SDS011;5013;51.840;8.276;2022-09-09T17:01:26;4.07;;;1.27;;
9948;SDS011;5013;51.840;8.276;2022-09-09T17:04:02;5.50;;;1.83;;
9948;SDS011;5013;51.840;8.276;2022-09-09T17:06:30;2.53;;;1.20;;
9948;SDS011;5013;51.840;8.276;2022-09-09T17:09:00;2.47;;;1.40;;
9948;SDS011;5013;51.840;8.276;2022-09-09T17:11:28;6.67;;;1.53;;
9948;SDS011;5013;51.840;8.276;2022-09-09T17:13:55;3.70;;;1.20;;
9948;SDS011;5013;51.840;8.276;2022-09-09T17:16:25;2.80;;;1.33;;
9948;SDS011;5013;51.840;8.276;2022-09-09T17:18:53;2.80;;;1.90;;
9948;SDS011;5013;51.840;8.276;2022-09-09T17:21:21;7.10;;;6.40;;
9948;SDS011;5013;51.840;8.276;2022-09-09T17:24:02;14.40;;;13.00;;
9948;SDS011;5013;51.840;8.276;2022-09-09T17:26:30;31.03;;;25.73;;
9948;SDS011;5013;51.840;8.276;2022-09-09T17:29:03;21.30;;;17.90;;
9948;SDS011;5013;51.840;8.276;2022-09-09T17:31:29;13.23;;;12.03;;